Terminal Aerodrome Forecast
Issued by NWS

Home | Current Version | Previous Version | Text Only | Print | Product List | Glossary On
Versions: 1 2 3 4 5 6 7 8 9 10 11 12 13 14 15 16 17 18 19 20 21 22 23
841
FTUS46 KMTR 232339
TAFMRY
TAF
KMRY 232339Z 2400/2424 22012KT P6SM OVC010
     FM240100 24011KT P6SM OVC007
     FM240400 23004KT 6SM BR OVC004
     FM241000 VRB03KT 3SM BR OVC003
     FM241800 28010KT P6SM OVC008
     FM242200 25012KT P6SM OVC012=

USA.gov is the U.S. government's official web portal to all federal, state and local government web resources and services.